Baldwin County, GA

09:11 PM EDT del 22 Maggio 2015 (GMT -0400)
Middle Georgia Regional | | Change Station
CLOSE
Current Station
Aeroporto
Location: Macon,
Altitudine: 361 ft
Stazioni meteo nelle vicinanze

Alt. 361 ft 32.68 °N, 83.65 °W | Updated 18 minutes ago

Sereno
Sereno
69 °F
Sembra 69 °F
N
5
Vento Variabile Vento da ENE

Oggi
Massima -- | Minima -- °F
--% Possibilità di precip.
Ieri
Massima -- | Minima -- °F
Precip. -- in
6:29 AM 8:30 PM
Luna crescente, 25% visible
Pressione 30.18 in
Visibilità 10.0 miglia
Nuvole Sereno
Punto di rugiada 56 °F
Umidità 63%
Piovosità 0.00 in
Spessore del manto nevoso Non disponibile.
Raggi UV 0 fuori da 12
Polline 5.50 fuori da 12
Qualità dell'aria Non disponibile.
Flu Activity Sporadic
METAR KMCN 230053Z AUTO 06004KT 10SM CLR 21/13 A3019 RMK AO2 SLP220 T02060133 TSNO

More Conditions Fewer Conditions

Pressione 30.18 in
Visibilità 10.0 miglia
Nuvole Sereno
Punto di rugiada 56 °F
Umidità 63%
Piovosità 0.00 in
Spessore del manto nevoso Non disponibile.
Raggi UV 0 fuori da 12
Polline 5.50 fuori da 12
Qualità dell'aria Non disponibile.
Flu Activity Sporadic
METAR KMCN 230053Z AUTO 06004KT 10SM CLR 21/13 A3019 RMK AO2 SLP220 T02060133 TSNO

More Conditions Fewer Conditions

10-Day Weather Forecast

Almanac

Astronomia

May. 22, 2015 Alba Tramonto
Ora attuale
Crepuscolo civile
Crepuscolo nautico
Crepuscolo astronomico
Luna
Estensione della luce visibile
Lunghezza del giorno
Tomorrow will be .
, % of the Moon is Illuminated

Gli estremi di oggi

State Highs State Lows

Community

WunderPhotos

Upload Photos

1,823,355 foto caricate!

WunderBlogs® & News

Nearby

Qualità dell'aria

  Qualità dell'aria Indice AQ Inquinante
Not available.

Profondità neve

Stazione Profondità Altitudine

Attività sismica

Città  Distanza Mag. Data & Ora
Minimo Magnitudo Mostrato è 2.5.

Temperature delle acque costiere

Località Temperatura

Stations

Stazioni meteo nelle vicinanze

Ubicazione della stazione Temp. Raffreddamento del vento Punto di rugiada Umidità Vento Precip. Alt. Aggiornato Tipo